createdAt,value
2023-12-28T00:00:01.058Z,6.05
2023-12-28T00:02:47.421Z,5.68
2023-12-28T00:05:34.277Z,6.57
2023-12-28T00:08:20.841Z,5.57
2023-12-28T00:11:07.442Z,4.75
2023-12-28T00:13:54.919Z,6.03
2023-12-28T00:16:41.394Z,5.55
2023-12-28T00:19:28.044Z,5.95
2023-12-28T00:22:14.310Z,4.80
2023-12-28T00:25:00.551Z,6.10
2023-12-28T00:27:48.105Z,8.85
2023-12-28T00:30:36.430Z,6.28
2023-12-28T00:33:22.773Z,6.32
2023-12-28T00:36:09.939Z,6.55
2023-12-28T00:38:56.069Z,8.15
2023-12-28T00:41:42.610Z,4.85
2023-12-28T00:44:30.270Z,8.55
2023-12-28T00:47:18.368Z,5.82
2023-12-28T00:50:05.286Z,4.28
2023-12-28T00:52:51.659Z,7.32
2023-12-28T00:55:38.516Z,7.50
2023-12-28T00:58:24.517Z,5.50
2023-12-28T01:01:11.066Z,6.20
2023-12-28T01:04:00.913Z,6.80
2023-12-28T01:06:47.575Z,8.57
2023-12-28T01:09:34.429Z,5.72
2023-12-28T01:12:21.143Z,5.93
2023-12-28T01:15:09.168Z,7.60
2023-12-28T01:17:55.865Z,6.10
2023-12-28T01:20:44.041Z,9.48
2023-12-28T01:23:30.706Z,9.13
2023-12-28T01:26:18.170Z,8.23
2023-12-28T01:29:05.045Z,8.18
2023-12-28T01:31:51.532Z,6.63
2023-12-28T01:34:37.698Z,5.72
2023-12-28T01:37:25.521Z,8.55
2023-12-28T01:40:12.666Z,5.10
2023-12-28T01:42:59.186Z,8.68
2023-12-28T01:45:46.160Z,7.18
2023-12-28T01:48:32.517Z,5.75
2023-12-28T01:51:19.401Z,4.90
2023-12-28T01:54:07.250Z,8.35
2023-12-28T01:56:53.426Z,9.07
2023-12-28T01:59:39.986Z,5.25
2023-12-28T02:02:26.401Z,12.18
2023-12-28T02:05:13.847Z,5.20
2023-12-28T02:08:01.099Z,5.15
2023-12-28T02:10:49.149Z,8.48
2023-12-28T02:13:35.612Z,5.50
2023-12-28T02:16:30.798Z,6.93
2023-12-28T02:19:26.749Z,6.95
2023-12-28T02:22:16.211Z,5.93
2023-12-28T02:25:07.385Z,4.18
2023-12-28T02:27:54.285Z,5.55
2023-12-28T02:30:40.898Z,5.80
2023-12-28T02:33:35.998Z,7.43
2023-12-28T02:36:25.477Z,6.90
2023-12-28T02:39:13.665Z,9.20
2023-12-28T02:42:01.628Z,7.55
2023-12-28T02:44:47.938Z,5.70
2023-12-28T02:47:34.499Z,3.92
2023-12-28T02:50:20.683Z,6.75
2023-12-28T02:53:07.352Z,7.03
2023-12-28T02:55:55.247Z,6.65
2023-12-28T02:58:42.745Z,2.58
2023-12-28T03:01:29.816Z,6.63
2023-12-28T03:04:16.473Z,9.65
2023-12-28T03:07:02.768Z,6.35
2023-12-28T03:09:49.495Z,5.97
2023-12-28T03:12:36.430Z,6.45
2023-12-28T03:15:24.134Z,8.35
2023-12-28T03:18:10.773Z,6.43
2023-12-28T03:20:57.924Z,6.25
2023-12-28T03:23:44.272Z,8.55
2023-12-28T03:26:30.441Z,5.30
2023-12-28T03:29:16.976Z,8.60
2023-12-28T03:32:05.105Z,7.00
2023-12-28T03:34:51.345Z,5.80
2023-12-28T03:37:38.699Z,9.63
2023-12-28T03:40:24.879Z,6.05
2023-12-28T03:43:11.631Z,8.75
2023-12-28T03:45:58.101Z,8.98
2023-12-28T03:48:45.827Z,7.40
2023-12-28T03:51:32.435Z,11.00
2023-12-28T03:54:19.454Z,5.38
2023-12-28T03:57:06.420Z,9.35
2023-12-28T03:59:52.814Z,4.88
2023-12-28T04:02:39.096Z,8.95
2023-12-28T04:05:26.715Z,10.68
2023-12-28T04:08:13.302Z,7.47
2023-12-28T04:10:59.763Z,7.15
2023-12-28T04:13:46.238Z,6.03
2023-12-28T04:16:32.294Z,13.85
2023-12-28T04:19:21.389Z,8.18
2023-12-28T04:22:09.659Z,9.10
2023-12-28T04:24:56.189Z,8.98
2023-12-28T04:27:44.192Z,10.75
2023-12-28T04:30:30.938Z,14.27
2023-12-28T04:33:20.200Z,9.07
2023-12-28T04:36:07.716Z,8.15
2023-12-28T04:38:55.679Z,7.78
2023-12-28T04:41:42.398Z,6.90
2023-12-28T04:44:28.591Z,8.32
2023-12-28T04:47:14.713Z,11.80
2023-12-28T04:50:00.960Z,11.48
2023-12-28T04:52:47.684Z,15.20
2023-12-28T04:55:35.121Z,12.68
2023-12-28T04:58:21.526Z,9.30
2023-12-28T05:01:07.797Z,8.75
2023-12-28T05:03:54.187Z,12.93
2023-12-28T05:06:41.681Z,14.05
2023-12-28T05:09:28.164Z,10.27
2023-12-28T05:12:15.954Z,7.50
2023-12-28T05:15:02.020Z,12.98
2023-12-28T05:17:51.798Z,12.02
2023-12-28T05:20:38.236Z,5.32
2023-12-28T05:23:24.760Z,9.48
2023-12-28T05:26:11.293Z,9.23
2023-12-28T05:28:59.067Z,10.70
2023-12-28T05:31:45.806Z,13.57
2023-12-28T05:34:33.129Z,15.35
2023-12-28T05:37:19.652Z,13.93
2023-12-28T05:40:07.527Z,13.07
2023-12-28T05:42:54.411Z,18.80
2023-12-28T05:45:42.113Z,15.95
2023-12-28T05:48:29.420Z,14.10
2023-12-28T05:51:15.803Z,10.80
2023-12-28T05:54:02.121Z,10.35
2023-12-28T05:56:48.548Z,12.52
2023-12-28T05:59:34.880Z,13.23
2023-12-28T06:02:22.699Z,15.32
2023-12-28T06:05:09.255Z,13.52
2023-12-28T06:07:55.512Z,14.73
2023-12-28T06:10:42.054Z,9.15
2023-12-28T06:13:28.265Z,15.02
2023-12-28T06:16:15.004Z,6.20
2023-12-28T06:19:03.340Z,9.07
2023-12-28T06:21:50.167Z,13.40
2023-12-28T06:24:40.315Z,18.98
2023-12-28T06:27:26.642Z,8.00
2023-12-28T06:30:14.154Z,20.83
2023-12-28T06:33:00.589Z,15.73
2023-12-28T06:35:48.457Z,11.70
2023-12-28T06:38:35.072Z,20.52
2023-12-28T06:41:21.378Z,18.95
2023-12-28T06:44:07.752Z,9.40
2023-12-28T06:46:56.783Z,13.25
2023-12-28T06:49:42.936Z,10.60
2023-12-28T06:52:32.618Z,14.35
2023-12-28T06:55:19.472Z,12.63
2023-12-28T06:58:07.243Z,47.72
2023-12-28T07:00:56.200Z,13.00
2023-12-28T07:03:42.725Z,20.27
2023-12-28T07:06:29.198Z,23.42
2023-12-28T07:09:17.056Z,15.60
2023-12-28T07:12:03.550Z,20.38
2023-12-28T07:14:49.945Z,18.35
2023-12-28T07:17:36.492Z,17.35
2023-12-28T07:20:22.836Z,26.63
2023-12-28T07:23:09.849Z,19.60
2023-12-28T07:25:57.651Z,20.67
2023-12-28T07:28:46.264Z,12.80
2023-12-28T07:31:33.482Z,15.35
2023-12-28T07:34:20.164Z,14.40
2023-12-28T07:37:06.586Z,17.55
2023-12-28T07:39:53.336Z,16.13
2023-12-28T07:42:41.468Z,9.43
2023-12-28T07:45:28.201Z,15.98
2023-12-28T07:48:15.289Z,21.58
2023-12-28T07:51:06.332Z,17.58
2023-12-28T07:53:52.591Z,16.52
2023-12-28T07:56:39.030Z,20.50
2023-12-28T07:59:26.901Z,18.42
2023-12-28T08:02:13.413Z,16.10
2023-12-28T08:05:00.325Z,16.63
2023-12-28T08:07:46.626Z,15.98
2023-12-28T08:10:33.318Z,12.52
2023-12-28T08:13:21.974Z,17.83
2023-12-28T08:16:10.433Z,17.08
2023-12-28T08:18:57.424Z,18.27
2023-12-28T08:21:43.821Z,18.98
2023-12-28T08:24:31.556Z,22.48
2023-12-28T08:27:17.992Z,24.02
2023-12-28T08:30:05.620Z,19.85
2023-12-28T08:32:53.559Z,15.77
2023-12-28T08:35:40.040Z,18.08
2023-12-28T08:38:26.567Z,25.25
2023-12-28T08:41:20.157Z,15.07
2023-12-28T08:44:06.382Z,19.30
2023-12-28T08:46:52.566Z,16.45
2023-12-28T08:49:40.513Z,15.63
2023-12-28T08:52:27.401Z,14.32
2023-12-28T08:55:13.751Z,16.85
2023-12-28T08:58:00.557Z,18.17
2023-12-28T09:00:48.159Z,14.70
2023-12-28T09:03:34.681Z,15.20
2023-12-28T09:06:23.141Z,15.27
2023-12-28T09:09:10.348Z,20.05
2023-12-28T09:11:56.530Z,19.65
2023-12-28T09:14:42.719Z,20.60
2023-12-28T09:17:29.263Z,16.88
2023-12-28T09:20:15.745Z,16.48
2023-12-28T09:23:03.575Z,16.95
2023-12-28T09:25:50.605Z,17.70
2023-12-28T09:28:37.171Z,22.33
2023-12-28T09:31:23.283Z,17.42
2023-12-28T09:34:09.987Z,18.88
2023-12-28T09:36:56.675Z,17.25
2023-12-28T09:39:45.925Z,16.17
2023-12-28T09:42:38.347Z,17.73
